Jordan Valley WCD
8215 S 1300 W, West Jordan
Last Weather Update:11/30/2010
Date
ETo
ETc
Rain
Irrigation
Req
Temp
Max
Temp
Min
Temp
Avg
Avg RH
Avg Wind
Avg Solar
inches
inches
incehs
inches
F
F
F
%
%
watts/m2
10/1/2010 0.11" 0.06" 0.00" 0.06" 89.9° 46.3° 65.3° 40.3% 0.7 MPH 158.3w/m2
10/2/2010 0.11" 0.06" 0.00" 0.06" 90.1° 47.1° 65.4° 41.4% 1.0 MPH 156.7w/m2
10/3/2010 0.14" 0.08" 0.00" 0.08" 84.2° 55.8° 69.8° 40.1% 4.4 MPH 138.3w/m2
10/4/2010 0.08" 0.04" 0.04" 0.01" 72.8° 54.3° 60.9° 62.4% 3.4 MPH 98.1w/m2
10/5/2010 0.07" 0.03" 0.00" 0.03" 71.4° 53.2° 59.9° 65.4% 1.7 MPH 83.7w/m2
10/6/2010 0.07" 0.04" 0.09" -0.04" 71.2° 49.6° 56.6° 76.4% 1.2 MPH 103.3w/m2
10/7/2010 0.05" 0.02" 0.00" 0.02" 65.7° 47.3° 54.8° 68.0% 0.7 MPH 66.0w/m2
10/8/2010 0.07" 0.03" 0.07" -0.02" 64.2° 44.3° 52.8° 66.6% 0.4 MPH 120.9w/m2
10/9/2010 0.05" 0.02" 0.00" 0.02" 62.8° 42.5° 52.7° 67.2% 0.6 MPH 86.4w/m2
10/10/2010 0.08" 0.03" 0.00" 0.03" 68.8° 37.1° 51.4° 68.3% 0.7 MPH 145.7w/m2
10/11/2010 0.06" 0.02" 0.00" 0.02" 67.1° 40.7° 53.2° 70.9% 0.7 MPH 105.0w/m2
10/12/2010 0.08" 0.03" 0.00" 0.03" 64.7° 35.5° 49.3° 61.6% 0.8 MPH 145.9w/m2
10/13/2010 0.08" 0.03" 0.00" 0.03" 68.8° 32.8° 48.3° 54.8% 0.5 MPH 144.8w/m2
10/14/2010 0.08" 0.03" 0.00" 0.03" 76.7° 33.2° 51.7° 54.4% 0.8 MPH 143.1w/m2
10/15/2010 0.08" 0.02" 0.00" 0.02" 78.2° 36.0° 53.6° 52.9% 0.3 MPH 137.9w/m2
10/16/2010 0.09" 0.03" 0.00" 0.03" 77.9° 37.7° 55.8° 50.5% 1.4 MPH 119.4w/m2
10/17/2010 0.10" 0.03" 0.00" 0.03" 75.8° 53.1° 62.1° 45.6% 3.2 MPH 116.6w/m2
10/18/2010 0.07" 0.02" 0.00" 0.02" 69.1° 44.9° 56.9° 61.8% 0.7 MPH 130.2w/m2
10/19/2010 0.08" 0.02" 0.00" 0.02" 67.8° 36.5° 50.9° 59.7% 0.7 MPH 134.7w/m2
10/20/2010 0.07" 0.02" 0.00" 0.02" 72.0° 34.2° 50.7° 57.9% 0.6 MPH 132.5w/m2
10/21/2010 0.07" 0.01" 0.00" 0.01" 71.4° 35.7° 52.7° 56.6% 0.7 MPH 124.1w/m2
10/22/2010 0.04" 0.01" 0.00" 0.01" 63.7° 46.4° 53.4° 61.6% 0.3 MPH 69.8w/m2
10/23/2010 0.03" 0.01" 0.22" -0.17" 55.7° 44.1° 50.4° 77.1% 2.0 MPH 51.3w/m2
10/24/2010 0.05" 0.01" 0.19" -0.15" 57.9° 45.8° 51.2° 76.2% 7.1 MPH 26.6w/m2
10/25/2010 0.06" 0.01" 0.13" -0.10" 55.1° 31.6° 40.8° 68.2% 3.2 MPH 104.9w/m2
10/26/2010 0.04" 0.00" 0.11" -0.08" 49.5° 31.5° 38.3° 71.3% 0.7 MPH 79.5w/m2
10/27/2010 0.05" 0.00" 0.10" -0.08" 48.5° 27.5° 35.8° 80.1% 0.0 MPH 113.4w/m2
10/28/2010 0.06" 0.00" 0.56" -0.44" 60.4° 26.2° 43.2° 54.9% 1.8 MPH 109.8w/m2
10/29/2010 0.08" 0.00" 0.00" 0.00" 68.0° 45.3° 53.6° 43.0% 3.7 MPH 80.2w/m2
10/30/2010 0.06" 0.00" 0.10" -0.08" 60.8° 44.8° 50.6° 57.5% 4.3 MPH 46.8w/m2
10/31/2010 0.06" 0.00" 0.00" 0.00" 61.4° 38.6° 48.7° 65.0% 1.9 MPH 94.2w/m2
Totals: 2.23" 0.72" 1.61" -0.57" 90.1° 26.2° 52.9° 60.6% 1.6 MPH 108.6w/m2